Time;durP1;ratioP1;P1;durP2;ratioP2;P2;SDS_P1;SDS_P2;PMS_P1;PMS_P2;Temp;Humidity;BMP_temperature;BMP_pressure;BME280_temperature;BME280_humidity;BME280_pressure;Samples;Min_cycle;Max_cycle;Signal;HPM_P1;HPM_P2
2022/03/17 00:02:07;;;;;;;4.80;2.60;;;;;;;;;;4960385;28;20493;-82
2022/03/17 00:04:32;;;;;;;5.63;3.17;;;;;;;;;;4960157;28;20034;-83
2022/03/17 00:06:59;;;;;;;5.75;2.83;;;;;;;;;;4976240;28;20048;-83
2022/03/17 00:09:24;;;;;;;5.10;3.50;;;;;;;;;;4959758;28;20100;-82
2022/03/17 00:11:51;;;;;;;3.92;2.45;;;;;;;;;;4976481;28;20034;-83
2022/03/17 00:14:17;;;;;;;4.10;3.03;;;;;;;;;;4960104;28;20089;-82
2022/03/17 00:16:42;;;;;;;4.15;3.00;;;;;;;;;;4976042;28;20058;-83
2022/03/17 00:19:08;;;;;;;6.80;3.20;;;;;;;;;;4975771;28;20412;-82
2022/03/17 00:21:35;;;;;;;7.28;3.15;;;;;;;;;;4975688;28;20074;-83
2022/03/17 00:24:01;;;;;;;6.63;2.33;;;;;;;;;;4975469;28;20073;-83
2022/03/17 00:26:26;;;;;;;4.30;2.85;;;;;;;;;;4959946;28;20038;-83
2022/03/17 00:28:52;;;;;;;4.40;2.55;;;;;;;;;;4975708;28;20097;-82
2022/03/17 00:31:17;;;;;;;6.57;2.58;;;;;;;;;;4975890;28;20065;-82
2022/03/17 00:33:43;;;;;;;4.75;2.15;;;;;;;;;;4975539;28;20031;-82
2022/03/17 00:36:09;;;;;;;4.22;2.60;;;;;;;;;;4992090;28;20041;-83
2022/03/17 00:38:37;;;;;;;3.65;2.65;;;;;;;;;;4994318;28;20034;-83
2022/03/17 00:41:03;;;;;;;5.60;2.97;;;;;;;;;;4959627;28;20133;-83
2022/03/17 00:43:28;;;;;;;4.75;3.47;;;;;;;;;;4978887;28;20117;-83
2022/03/17 00:45:54;;;;;;;4.10;3.10;;;;;;;;;;4994473;28;20038;-83
2022/03/17 00:48:19;;;;;;;9.05;3.65;;;;;;;;;;4995215;28;20056;-83
2022/03/17 00:50:45;;;;;;;5.05;3.65;;;;;;;;;;4994891;28;20412;-83
2022/03/17 00:53:10;;;;;;;6.18;4.03;;;;;;;;;;4994475;28;20037;-81
2022/03/17 00:55:35;;;;;;;6.95;3.80;;;;;;;;;;4978146;28;20065;-81
2022/03/17 00:58:01;;;;;;;5.55;3.70;;;;;;;;;;4994565;28;20389;-81
2022/03/17 01:00:26;;;;;;;6.50;3.55;;;;;;;;;;4978500;28;20029;-81
2022/03/17 01:02:53;;;;;;;7.50;3.72;;;;;;;;;;4962351;28;20042;-82
2022/03/17 01:05:19;;;;;;;4.55;3.50;;;;;;;;;;4962654;28;20036;-82
2022/03/17 01:07:45;;;;;;;6.72;3.78;;;;;;;;;;4961864;28;20034;-80
2022/03/17 01:10:12;;;;;;;5.85;3.78;;;;;;;;;;4962561;28;20038;-81
2022/03/17 01:12:37;;;;;;;4.57;3.30;;;;;;;;;;4962650;28;20037;-81
2022/03/17 01:15:03;;;;;;;4.63;3.30;;;;;;;;;;4977941;28;20128;-81
2022/03/17 01:17:29;;;;;;;4.38;3.25;;;;;;;;;;4962346;28;20096;-81
2022/03/17 01:19:54;;;;;;;6.20;3.35;;;;;;;;;;4978090;28;20042;-81
2022/03/17 01:22:21;;;;;;;4.80;3.42;;;;;;;;;;4977766;28;20038;-80
2022/03/17 01:24:49;;;;;;;5.68;3.70;;;;;;;;;;4978748;28;20049;-81
2022/03/17 01:27:15;;;;;;;5.47;3.20;;;;;;;;;;4994953;28;20038;-81
2022/03/17 01:29:43;;;;;;;5.82;2.90;;;;;;;;;;4962062;28;20500;-82
2022/03/17 01:32:10;;;;;;;5.00;3.28;;;;;;;;;;4978654;28;20116;-81
2022/03/17 01:34:36;;;;;;;5.38;3.67;;;;;;;;;;4976898;28;20057;-82
2022/03/17 01:37:02;;;;;;;4.07;2.85;;;;;;;;;;4977541;28;20029;-82
2022/03/17 01:39:27;;;;;;;3.70;3.13;;;;;;;;;;4994285;28;20065;-82
2022/03/17 01:41:57;;;;;;;5.00;3.20;;;;;;;;;;4974896;28;20520;-81
2022/03/17 01:44:22;;;;;;;4.57;3.28;;;;;;;;;;4958729;28;20031;-81
2022/03/17 01:49:37;;;;;;;5.00;3.00;;;;;;;;;;4977203;28;20042;-81
2022/03/17 01:52:03;;;;;;;5.13;3.00;;;;;;;;;;4977268;28;20886;-82
2022/03/17 01:54:28;;;;;;;4.10;3.08;;;;;;;;;;4962198;28;20057;-81
2022/03/17 01:56:53;;;;;;;5.05;2.97;;;;;;;;;;4983678;28;20036;-83
2022/03/17 01:59:19;;;;;;;4.90;2.95;;;;;;;;;;4981546;28;20038;-82
2022/03/17 02:01:44;;;;;;;4.80;2.42;;;;;;;;;;4997630;28;20404;-81
2022/03/17 02:04:11;;;;;;;6.32;2.85;;;;;;;;;;4965722;28;20030;-82
2022/03/17 02:06:37;;;;;;;5.53;3.25;;;;;;;;;;4965351;28;20029;-83
2022/03/17 02:09:03;;;;;;;5.90;3.50;;;;;;;;;;4982042;28;20061;-83
2022/03/17 02:14:13;;;;;;;3.83;2.75;;;;;;;;;;5000078;28;20081;-82
2022/03/17 02:16:39;;;;;;;5.88;3.20;;;;;;;;;;4965578;28;20479;-82
2022/03/17 02:19:06;;;;;;;5.40;3.22;;;;;;;;;;4981271;28;20065;-82
2022/03/17 02:21:34;;;;;;;5.05;3.53;;;;;;;;;;4965603;28;20033;-82
2022/03/17 02:26:45;;;;;;;5.20;2.97;;;;;;;;;;4999995;28;20045;-81
2022/03/17 02:29:10;;;;;;;3.80;2.58;;;;;;;;;;4961388;28;20531;-82
2022/03/17 02:31:37;;;;;;;5.70;2.70;;;;;;;;;;4961598;28;20046;-82
2022/03/17 02:34:03;;;;;;;3.60;2.70;;;;;;;;;;4961496;28;20045;-82
2022/03/17 02:36:29;;;;;;;3.97;2.67;;;;;;;;;;4997360;28;20037;-82
2022/03/17 02:38:54;;;;;;;4.78;2.80;;;;;;;;;;4981330;28;20492;-82
2022/03/17 02:41:23;;;;;;;4.53;2.65;;;;;;;;;;5013790;28;20038;-82
2022/03/17 02:43:52;;;;;;;3.75;2.97;;;;;;;;;;4997454;28;20432;-82
2022/03/17 02:46:18;;;;;;;4.82;3.00;;;;;;;;;;4981068;28;20041;-82
2022/03/17 02:48:43;;;;;;;3.72;2.95;;;;;;;;;;4996403;28;20141;-82
2022/03/17 02:51:10;;;;;;;4.47;2.83;;;;;;;;;;4980895;28;20507;-82
2022/03/17 02:53:35;;;;;;;4.60;2.83;;;;;;;;;;4980369;28;20460;-82
2022/03/17 02:56:01;;;;;;;5.13;2.80;;;;;;;;;;4996968;28;20053;-82
2022/03/17 02:58:27;;;;;;;3.47;2.53;;;;;;;;;;4980475;28;20041;-82
2022/03/17 03:00:53;;;;;;;5.13;2.78;;;;;;;;;;4997081;28;20038;-82
2022/03/17 03:03:18;;;;;;;4.88;2.80;;;;;;;;;;4980066;28;20092;-82
2022/03/17 03:05:44;;;;;;;4.97;3.08;;;;;;;;;;4980374;28;20041;-82
2022/03/17 03:08:09;;;;;;;3.60;2.30;;;;;;;;;;4964646;28;20132;-82
2022/03/17 03:10:35;;;;;;;4.07;2.40;;;;;;;;;;4980447;28;20045;-82
2022/03/17 03:13:00;;;;;;;3.92;2.92;;;;;;;;;;4997063;28;20046;-82
2022/03/17 03:15:26;;;;;;;4.28;2.80;;;;;;;;;;4964251;28;20038;-82
2022/03/17 03:17:51;;;;;;;4.90;2.53;;;;;;;;;;4996188;28;20077;-82
2022/03/17 03:20:17;;;;;;;4.65;2.88;;;;;;;;;;4996353;28;20112;-82
2022/03/17 03:22:42;;;;;;;4.63;3.13;;;;;;;;;;4979705;28;20416;-82
2022/03/17 03:25:09;;;;;;;5.70;3.22;;;;;;;;;;4996419;28;20096;-82
2022/03/17 03:27:34;;;;;;;4.72;3.03;;;;;;;;;;4980239;28;20038;-83
2022/03/17 03:30:00;;;;;;;4.60;2.90;;;;;;;;;;4996570;28;20121;-82
2022/03/17 03:32:27;;;;;;;3.97;2.45;;;;;;;;;;4980114;28;20404;-82
2022/03/17 03:34:52;;;;;;;5.38;3.35;;;;;;;;;;4980417;28;20036;-82
2022/03/17 03:37:24;;;;;;;4.03;2.80;;;;;;;;;;4979883;28;20046;-83
2022/03/17 03:39:53;;;;;;;4.35;3.15;;;;;;;;;;4980893;28;20026;-83
2022/03/17 03:42:19;;;;;;;5.95;3.08;;;;;;;;;;4976670;28;20070;-82
2022/03/17 03:44:44;;;;;;;5.13;2.85;;;;;;;;;;4960579;28;20066;-82
2022/03/17 03:47:10;;;;;;;4.10;3.10;;;;;;;;;;4960357;28;20058;-83
2022/03/17 03:49:38;;;;;;;5.22;3.05;;;;;;;;;;4960227;28;20077;-82
2022/03/17 03:52:05;;;;;;;3.75;2.35;;;;;;;;;;4969549;28;20080;-82
2022/03/17 03:54:30;;;;;;;3.65;2.75;;;;;;;;;;4960423;28;20125;-83
2022/03/17 03:56:56;;;;;;;3.10;2.22;;;;;;;;;;4964013;28;20045;-83
2022/03/17 03:59:23;;;;;;;4.90;3.10;;;;;;;;;;4976390;28;20037;-82
2022/03/17 04:01:52;;;;;;;3.40;2.55;;;;;;;;;;4976024;28;20051;-83
2022/03/17 04:04:19;;;;;;;4.03;2.80;;;;;;;;;;4977056;28;20030;-83
2022/03/17 04:06:49;;;;;;;4.85;2.42;;;;;;;;;;4976123;28;20121;-82
2022/03/17 04:09:15;;;;;;;3.50;2.55;;;;;;;;;;4977115;28;20117;-82
2022/03/17 04:11:41;;;;;;;3.75;2.53;;;;;;;;;;4976148;28;20117;-83
2022/03/17 04:14:07;;;;;;;3.35;2.25;;;;;;;;;;4991512;28;20041;-82
2022/03/17 04:16:32;;;;;;;3.17;2.55;;;;;;;;;;4975389;28;20113;-82
2022/03/17 04:18:58;;;;;;;3.90;3.00;;;;;;;;;;4959846;28;20045;-82
2022/03/17 04:21:23;;;;;;;3.92;2.30;;;;;;;;;;4960089;28;20041;-82
2022/03/17 04:23:49;;;;;;;4.07;2.38;;;;;;;;;;4975726;28;20042;-82
2022/03/17 04:26:14;;;;;;;6.03;2.53;;;;;;;;;;4975959;28;20047;-81
2022/03/17 04:28:40;;;;;;;3.00;2.10;;;;;;;;;;4959580;28;20034;-82
2022/03/17 04:31:05;;;;;;;3.55;2.20;;;;;;;;;;4959615;28;20073;-82
2022/03/17 04:33:31;;;;;;;3.13;2.30;;;;;;;;;;4975626;28;20026;-82
2022/03/17 04:35:56;;;;;;;3.40;2.20;;;;;;;;;;4973861;28;20069;-81
2022/03/17 04:38:22;;;;;;;4.03;2.53;;;;;;;;;;4978961;28;20396;-82
2022/03/17 04:40:49;;;;;;;4.20;2.47;;;;;;;;;;4979320;28;20037;-82
2022/03/17 04:43:18;;;;;;;2.90;2.17;;;;;;;;;;4975482;28;20097;-82
2022/03/17 04:45:44;;;;;;;3.67;2.38;;;;;;;;;;4975073;28;20035;-82
2022/03/17 04:48:10;;;;;;;3.25;2.20;;;;;;;;;;4975427;28;20085;-82
2022/03/17 04:50:36;;;;;;;3.72;2.42;;;;;;;;;;4975548;28;20038;-82
2022/03/17 04:55:45;;;;;;;3.88;2.90;;;;;;;;;;4991298;28;20061;-82
2022/03/17 04:58:11;;;;;;;3.40;2.00;;;;;;;;;;4974271;28;20492;-81
2022/03/17 05:00:36;;;;;;;3.67;2.40;;;;;;;;;;4958658;28;20038;-82
2022/03/17 05:03:01;;;;;;;4.72;2.70;;;;;;;;;;4958773;28;20493;-82
2022/03/17 05:05:27;;;;;;;4.22;2.75;;;;;;;;;;4975156;28;20053;-82
2022/03/17 05:07:57;;;;;;;4.55;2.45;;;;;;;;;;4975095;28;20104;-82
2022/03/17 05:10:22;;;;;;;4.32;2.25;;;;;;;;;;4976174;28;20417;-82
2022/03/17 05:12:48;;;;;;;3.83;2.45;;;;;;;;;;4975029;28;20034;-82
2022/03/17 05:15:13;;;;;;;3.38;2.35;;;;;;;;;;4974581;28;20038;-82
2022/03/17 05:17:39;;;;;;;4.22;2.47;;;;;;;;;;4975114;28;20034;-82
2022/03/17 05:20:05;;;;;;;3.75;2.47;;;;;;;;;;4959200;28;20065;-82
2022/03/17 05:22:31;;;;;;;3.70;2.53;;;;;;;;;;4943003;28;20038;-81
2022/03/17 05:24:56;;;;;;;5.93;2.78;;;;;;;;;;4974920;28;20081;-82
2022/03/17 05:27:22;;;;;;;3.67;2.50;;;;;;;;;;4959233;28;20042;-82
2022/03/17 05:29:47;;;;;;;5.18;2.05;;;;;;;;;;4958297;28;20057;-82
2022/03/17 05:32:13;;;;;;;4.43;2.55;;;;;;;;;;4975178;28;20054;-82
2022/03/17 05:34:38;;;;;;;3.20;2.10;;;;;;;;;;4979030;28;20385;-82
2022/03/17 05:37:04;;;;;;;4.50;2.50;;;;;;;;;;4978266;28;20030;-81
2022/03/17 05:39:29;;;;;;;4.57;2.15;;;;;;;;;;4994408;28;20041;-82
2022/03/17 05:41:54;;;;;;;3.65;2.33;;;;;;;;;;4977921;28;20049;-81
2022/03/17 05:44:20;;;;;;;3.17;2.42;;;;;;;;;;4993876;28;20160;-81
2022/03/17 05:46:45;;;;;;;3.00;1.80;;;;;;;;;;4993890;28;20038;-82
2022/03/17 05:49:11;;;;;;;3.60;1.83;;;;;;;;;;4993849;28;20463;-82
2022/03/17 05:51:37;;;;;;;2.40;1.50;;;;;;;;;;4993862;28;20112;-82
2022/03/17 05:54:03;;;;;;;3.50;1.83;;;;;;;;;;4977841;28;20050;-82
2022/03/17 05:56:28;;;;;;;3.10;2.05;;;;;;;;;;4994132;28;20045;-81
2022/03/17 05:58:54;;;;;;;3.25;2.20;;;;;;;;;;4977613;28;20034;-81
2022/03/17 06:01:19;;;;;;;3.17;1.92;;;;;;;;;;4961750;28;20412;-80
2022/03/17 06:03:44;;;;;;;11.50;2.15;;;;;;;;;;4977937;28;20385;-81
2022/03/17 06:06:10;;;;;;;3.60;2.10;;;;;;;;;;4991286;28;20088;-80
2022/03/17 06:08:35;;;;;;;5.13;1.88;;;;;;;;;;4991524;28;20420;-80
2022/03/17 06:11:01;;;;;;;3.72;2.00;;;;;;;;;;4992258;28;20109;-81
2022/03/17 06:13:26;;;;;;;4.10;2.15;;;;;;;;;;4993877;28;20045;-80
2022/03/17 06:15:52;;;;;;;3.28;2.03;;;;;;;;;;4993745;28;20699;-82
2022/03/17 06:18:17;;;;;;;2.67;1.70;;;;;;;;;;4993878;28;20054;-81
2022/03/17 06:20:43;;;;;;;4.07;1.70;;;;;;;;;;4977493;28;20419;-81
2022/03/17 06:23:08;;;;;;;3.75;1.67;;;;;;;;;;4961577;28;20120;-84
2022/03/17 06:25:34;;;;;;;4.03;2.40;;;;;;;;;;4993676;28;20034;-83
2022/03/17 06:28:01;;;;;;;3.15;1.92;;;;;;;;;;4993482;28;20045;-84
2022/03/17 06:30:30;;;;;;;4.55;2.22;;;;;;;;;;4960915;28;20057;-88
2022/03/17 06:32:56;;;;;;;2.55;1.67;;;;;;;;;;4962496;28;20528;-81
2022/03/17 06:35:23;;;;;;;4.40;1.80;;;;;;;;;;4993385;28;20079;-81
2022/03/17 06:37:49;;;;;;;3.80;1.50;;;;;;;;;;4980000;28;20038;-78
2022/03/17 06:40:16;;;;;;;4.85;1.52;;;;;;;;;;4981190;28;20041;-78
2022/03/17 06:42:41;;;;;;;9.40;2.00;;;;;;;;;;4977611;28;20039;-78
2022/03/17 06:45:07;;;;;;;8.65;2.30;;;;;;;;;;4977254;28;20045;-78
2022/03/17 06:47:33;;;;;;;8.35;2.42;;;;;;;;;;4961585;28;20520;-78
2022/03/17 06:49:58;;;;;;;7.85;2.10;;;;;;;;;;4977751;28;20539;-78
2022/03/17 06:52:23;;;;;;;10.05;2.67;;;;;;;;;;4975522;28;20038;-78
2022/03/17 06:54:50;;;;;;;10.00;2.38;;;;;;;;;;4996764;28;20068;-78
2022/03/17 06:57:19;;;;;;;7.85;1.98;;;;;;;;;;4980208;28;20034;-78
2022/03/17 06:59:45;;;;;;;4.63;1.90;;;;;;;;;;4977172;28;20066;-78
2022/03/17 07:02:12;;;;;;;9.05;1.90;;;;;;;;;;4980444;28;20038;-78
2022/03/17 07:04:37;;;;;;;7.40;2.10;;;;;;;;;;4996754;28;20038;-78
2022/03/17 07:07:03;;;;;;;5.80;1.90;;;;;;;;;;4980736;28;20042;-78
2022/03/17 07:09:29;;;;;;;8.68;1.85;;;;;;;;;;4980336;28;20026;-78
2022/03/17 07:11:54;;;;;;;7.40;1.83;;;;;;;;;;4996526;28;20121;-78
2022/03/17 07:14:19;;;;;;;5.22;1.98;;;;;;;;;;4996420;28;20408;-78
2022/03/17 07:16:45;;;;;;;4.80;2.08;;;;;;;;;;4996433;28;20038;-78
2022/03/17 07:19:10;;;;;;;6.47;2.25;;;;;;;;;;4996540;28;20040;-82
2022/03/17 07:21:36;;;;;;;7.10;1.65;;;;;;;;;;4996412;28;20041;-82
2022/03/17 07:24:01;;;;;;;7.18;2.38;;;;;;;;;;4979938;28;20099;-84
2022/03/17 07:26:27;;;;;;;6.10;1.92;;;;;;;;;;4964017;28;20038;-83
2022/03/17 07:28:54;;;;;;;8.68;1.58;;;;;;;;;;4979872;28;20034;-80
2022/03/17 07:31:20;;;;;;;5.35;1.40;;;;;;;;;;4980825;28;20125;-79
2022/03/17 07:33:48;;;;;;;9.98;2.10;;;;;;;;;;4980307;28;20095;-80
2022/03/17 07:36:13;;;;;;;8.25;1.83;;;;;;;;;;4980128;28;20099;-79
2022/03/17 07:38:38;;;;;;;4.45;1.38;;;;;;;;;;4979887;28;20037;-80
2022/03/17 07:41:04;;;;;;;5.68;1.23;;;;;;;;;;4996226;28;20125;-79
2022/03/17 07:43:29;;;;;;;5.25;1.90;;;;;;;;;;4976730;28;20396;-81
2022/03/17 07:45:55;;;;;;;7.00;1.77;;;;;;;;;;4960384;28;20185;-81
2022/03/17 07:48:20;;;;;;;6.50;1.33;;;;;;;;;;4975316;28;20039;-80
2022/03/17 07:50:46;;;;;;;7.22;1.92;;;;;;;;;;4945555;28;20042;-80
2022/03/17 07:53:11;;;;;;;4.60;1.40;;;;;;;;;;4975423;28;20493;-80
2022/03/17 07:55:37;;;;;;;5.30;1.30;;;;;;;;;;4943685;28;20092;-80
2022/03/17 07:58:02;;;;;;;5.45;1.40;;;;;;;;;;4957244;28;20065;-80
2022/03/17 08:00:28;;;;;;;4.72;1.52;;;;;;;;;;4979538;28;20076;-80
2022/03/17 08:02:54;;;;;;;5.22;1.35;;;;;;;;;;4955660;28;20049;-80
2022/03/17 08:05:20;;;;;;;5.13;1.15;;;;;;;;;;4975719;28;20068;-81
2022/03/17 08:07:45;;;;;;;6.88;1.77;;;;;;;;;;4959366;28;20077;-82
2022/03/17 08:10:11;;;;;;;8.80;2.10;;;;;;;;;;4976474;28;20042;-82
2022/03/17 08:12:36;;;;;;;4.97;1.58;;;;;;;;;;4970747;28;20080;-82
2022/03/17 08:15:05;;;;;;;4.28;1.48;;;;;;;;;;4978745;28;20037;-82
2022/03/17 08:17:31;;;;;;;5.97;1.45;;;;;;;;;;4974649;28;20079;-81
2022/03/17 08:19:57;;;;;;;3.85;2.33;;;;;;;;;;4987585;28;20521;-82
2022/03/17 08:22:23;;;;;;;4.55;1.42;;;;;;;;;;4976590;28;20038;-81
2022/03/17 08:24:49;;;;;;;2.63;1.20;;;;;;;;;;4977458;28;20053;-81
2022/03/17 08:27:14;;;;;;;3.08;1.52;;;;;;;;;;4992864;28;20060;-81
2022/03/17 08:29:40;;;;;;;4.60;1.38;;;;;;;;;;4994446;28;20045;-82
2022/03/17 08:32:06;;;;;;;3.58;1.33;;;;;;;;;;4994040;28;20074;-81
2022/03/17 08:34:32;;;;;;;4.85;2.03;;;;;;;;;;4962202;28;20503;-81
2022/03/17 08:36:59;;;;;;;4.85;1.58;;;;;;;;;;4977392;28;20100;-81
2022/03/17 08:39:25;;;;;;;4.28;1.70;;;;;;;;;;4975664;28;20042;-82
2022/03/17 08:41:51;;;;;;;3.08;1.45;;;;;;;;;;4976991;28;20062;-81
2022/03/17 08:44:17;;;;;;;3.60;1.73;;;;;;;;;;4984020;28;20060;-81
2022/03/17 08:49:27;;;;;;;3.25;1.40;;;;;;;;;;4978950;28;20046;-82
2022/03/17 08:51:54;;;;;;;3.78;1.35;;;;;;;;;;4985083;28;20100;-82
2022/03/17 08:54:22;;;;;;;4.00;2.00;;;;;;;;;;4983649;28;20038;-82
2022/03/17 08:56:48;;;;;;;6.35;2.00;;;;;;;;;;4977751;28;20520;-82
2022/03/17 08:59:13;;;;;;;5.40;2.05;;;;;;;;;;4977926;28;20048;-82
2022/03/17 09:01:39;;;;;;;5.88;1.77;;;;;;;;;;4962235;28;20496;-82
2022/03/17 09:04:05;;;;;;;5.35;2.03;;;;;;;;;;4977766;28;20107;-82
2022/03/17 09:06:30;;;;;;;4.43;1.83;;;;;;;;;;5010073;28;20132;-82
2022/03/17 09:08:56;;;;;;;5.40;2.25;;;;;;;;;;4994664;28;20160;-82
2022/03/17 09:11:21;;;;;;;5.47;1.80;;;;;;;;;;4997794;28;20026;-81
2022/03/17 09:13:49;;;;;;;3.22;1.60;;;;;;;;;;4975361;28;20046;-82
2022/03/17 09:16:16;;;;;;;3.90;1.85;;;;;;;;;;4975157;28;20037;-82
2022/03/17 09:18:42;;;;;;;3.35;1.50;;;;;;;;;;4966793;28;20039;-82
2022/03/17 09:21:11;;;;;;;4.10;1.52;;;;;;;;;;4993659;28;20111;-81
2022/03/17 09:23:37;;;;;;;6.03;1.80;;;;;;;;;;4975016;28;20551;-80
2022/03/17 09:26:02;;;;;;;3.20;1.40;;;;;;;;;;4976309;28;20037;-81
2022/03/17 09:28:27;;;;;;;3.03;1.30;;;;;;;;;;4994431;28;20034;-81
2022/03/17 09:30:56;;;;;;;4.28;1.25;;;;;;;;;;4993966;28;20045;-81
2022/03/17 09:33:25;;;;;;;3.65;1.58;;;;;;;;;;4978000;28;20038;-81
2022/03/17 09:36:00;;;;;;;2.67;1.48;;;;;;;;;;4994369;28;20045;-81
2022/03/17 09:38:26;;;;;;;5.10;1.38;;;;;;;;;;4978226;28;20499;-81
2022/03/17 09:40:52;;;;;;;2.72;1.20;;;;;;;;;;4994464;28;20045;-81
2022/03/17 09:43:28;;;;;;;3.33;1.20;;;;;;;;;;4974956;28;20045;-79
2022/03/17 09:45:54;;;;;;;2.30;1.10;;;;;;;;;;4961300;28;20034;-80
2022/03/17 09:48:21;;;;;;;3.65;1.60;;;;;;;;;;4975069;28;20405;-80
2022/03/17 09:50:47;;;;;;;4.75;1.42;;;;;;;;;;4975653;28;20037;-82
2022/03/17 09:53:13;;;;;;;3.22;1.40;;;;;;;;;;4994262;28;20069;-81
2022/03/17 09:55:43;;;;;;;3.15;1.20;;;;;;;;;;4977530;28;20464;-82
2022/03/17 09:58:09;;;;;;;3.58;1.17;;;;;;;;;;4959899;28;20038;-82
2022/03/17 10:00:53;;;;;;;2.95;1.35;;;;;;;;;;4989518;28;20037;-82
2022/03/17 10:03:26;;;;;;;7.03;1.52;;;;;;;;;;4963417;28;20129;-82
2022/03/17 10:05:53;;;;;;;2.47;1.30;;;;;;;;;;4975067;28;20118;-82
2022/03/17 10:08:20;;;;;;;2.55;1.35;;;;;;;;;;4974760;28;20129;-82
2022/03/17 10:10:45;;;;;;;2.67;1.23;;;;;;;;;;4974655;28;20105;-82
2022/03/17 10:13:16;;;;;;;3.45;1.23;;;;;;;;;;4977492;28;20125;-82
2022/03/17 10:15:43;;;;;;;5.10;1.23;;;;;;;;;;4978846;28;20408;-82
2022/03/17 10:18:23;;;;;;;3.00;1.17;;;;;;;;;;4946092;28;20066;-82
2022/03/17 10:21:10;;;;;;;2.90;1.00;;;;;;;;;;4962684;28;20073;-82
2022/03/17 10:23:53;;;;;;;2.40;1.00;;;;;;;;;;4994031;28;20038;-82
2022/03/17 10:26:40;;;;;;;2.65;0.82;;;;;;;;;;4965805;28;20045;-82
2022/03/17 10:29:11;;;;;;;2.15;0.90;;;;;;;;;;5013874;28;20416;-81
2022/03/17 10:31:59;;;;;;;2.88;0.90;;;;;;;;;;4981447;28;20038;-81
2022/03/17 10:34:33;;;;;;;2.83;0.80;;;;;;;;;;4980524;28;20030;-81
2022/03/17 10:37:18;;;;;;;2.85;1.00;;;;;;;;;;4997193;28;20121;-82
2022/03/17 10:39:45;;;;;;;4.03;0.82;;;;;;;;;;4981802;28;20065;-82
2022/03/17 10:42:11;;;;;;;3.60;0.77;;;;;;;;;;5013533;28;20033;-81
2022/03/17 10:44:40;;;;;;;2.92;0.90;;;;;;;;;;4981033;28;20041;-81
2022/03/17 10:47:06;;;;;;;2.38;1.30;;;;;;;;;;4980942;28;20025;-81
2022/03/17 10:49:32;;;;;;;3.17;0.70;;;;;;;;;;4980838;28;20554;-81
2022/03/17 10:51:57;;;;;;;2.72;0.80;;;;;;;;;;4997061;28;20053;-79
2022/03/17 10:54:23;;;;;;;3.47;1.00;;;;;;;;;;4980660;28;20053;-79
2022/03/17 10:56:59;;;;;;;2.80;0.70;;;;;;;;;;5013463;28;20038;-79
2022/03/17 10:59:42;;;;;;;4.15;1.00;;;;;;;;;;4997204;28;20570;-78
2022/03/17 11:02:08;;;;;;;4.50;1.00;;;;;;;;;;4981175;28;20030;-82
2022/03/17 11:04:38;;;;;;;2.50;0.90;;;;;;;;;;4980730;28;20519;-81
2022/03/17 11:07:05;;;;;;;2.45;1.20;;;;;;;;;;4980945;28;20404;-81
2022/03/17 11:09:30;;;;;;;2.83;1.13;;;;;;;;;;4980501;28;20484;-82
2022/03/17 11:11:56;;;;;;;2.33;1.23;;;;;;;;;;4980515;28;20091;-81
2022/03/17 11:14:23;;;;;;;2.17;0.88;;;;;;;;;;4980575;28;20515;-81
2022/03/17 11:16:50;;;;;;;3.33;0.90;;;;;;;;;;4980435;28;20041;-82
2022/03/17 11:19:21;;;;;;;4.03;1.05;;;;;;;;;;4980734;28;20551;-82
2022/03/17 11:21:49;;;;;;;2.23;0.70;;;;;;;;;;4980685;28;20033;-82
2022/03/17 11:24:21;;;;;;;2.47;0.98;;;;;;;;;;4996552;28;20060;-82
2022/03/17 11:26:47;;;;;;;1.92;0.80;;;;;;;;;;4980404;28;20033;-81
2022/03/17 11:29:21;;;;;;;2.30;0.70;;;;;;;;;;4980503;28;20026;-82
2022/03/17 11:31:56;;;;;;;4.13;0.90;;;;;;;;;;4981626;28;20065;-82
2022/03/17 11:34:46;;;;;;;1.98;0.90;;;;;;;;;;4996357;28;20481;-79
2022/03/17 11:37:17;;;;;;;3.90;0.65;;;;;;;;;;4980496;28;20492;-79
2022/03/17 11:39:52;;;;;;;1.57;0.80;;;;;;;;;;4996327;28;20061;-82
2022/03/17 11:42:36;;;;;;;3.13;0.90;;;;;;;;;;5009384;28;20608;-81
2022/03/17 11:45:07;;;;;;;3.13;0.88;;;;;;;;;;4993174;28;20039;-82
2022/03/17 11:47:36;;;;;;;2.53;0.90;;;;;;;;;;4976887;28;20493;-81
2022/03/17 11:50:23;;;;;;;3.20;1.00;;;;;;;;;;4977256;28;20489;-82
2022/03/17 11:52:58;;;;;;;2.45;0.90;;;;;;;;;;4996719;28;20049;-79
2022/03/17 11:55:34;;;;;;;1.33;0.70;;;;;;;;;;4980317;28;20038;-79
2022/03/17 11:58:25;;;;;;;2.13;0.60;;;;;;;;;;4995959;28;20057;-78
2022/03/17 12:01:23;;;;;;;3.65;0.77;;;;;;;;;;4991955;28;20493;-81
2022/03/17 12:04:02;;;;;;;1.98;0.70;;;;;;;;;;4985837;28;20046;-79
2022/03/17 12:06:28;;;;;;;1.67;0.60;;;;;;;;;;4977815;28;20030;-79
2022/03/17 12:09:02;;;;;;;2.55;0.70;;;;;;;;;;4992479;28;20134;-79
2022/03/17 12:11:31;;;;;;;3.00;0.95;;;;;;;;;;4960663;28;20122;-80
2022/03/17 12:14:16;;;;;;;1.98;0.75;;;;;;;;;;4975845;28;20045;-79
2022/03/17 12:16:48;;;;;;;2.25;0.50;;;;;;;;;;4992129;28;20038;-81
2022/03/17 12:19:28;;;;;;;1.02;0.45;;;;;;;;;;4960373;28;20046;-82
2022/03/17 12:22:02;;;;;;;2.55;0.95;;;;;;;;;;4992189;28;20053;-82
2022/03/17 12:24:47;;;;;;;2.63;0.70;;;;;;;;;;4991744;28;20509;-82
2022/03/17 12:27:22;;;;;;;2.17;0.60;;;;;;;;;;4976122;28;20035;-82
2022/03/17 12:29:49;;;;;;;2.88;0.60;;;;;;;;;;4976047;28;20065;-82
2022/03/17 12:32:19;;;;;;;3.40;1.25;;;;;;;;;;4976168;28;20042;-82
2022/03/17 12:34:46;;;;;;;2.38;0.90;;;;;;;;;;4958962;28;20122;-82
2022/03/17 12:37:12;;;;;;;2.35;0.57;;;;;;;;;;4975451;28;20509;-82
2022/03/17 12:39:37;;;;;;;3.30;0.73;;;;;;;;;;4975624;28;20061;-79
2022/03/17 12:42:15;;;;;;;1.38;0.43;;;;;;;;;;4979365;28;20045;-79
2022/03/17 12:44:50;;;;;;;1.73;0.68;;;;;;;;;;4963154;28;20037;-80
2022/03/17 12:47:16;;;;;;;2.00;1.02;;;;;;;;;;4979039;28;20034;-80
2022/03/17 12:49:42;;;;;;;1.95;0.40;;;;;;;;;;4978674;28;20112;-79
2022/03/17 12:52:13;;;;;;;2.30;0.50;;;;;;;;;;4978986;28;20040;-80
2022/03/17 12:54:39;;;;;;;1.67;0.55;;;;;;;;;;4994682;28;20196;-79
2022/03/17 12:57:04;;;;;;;2.05;0.55;;;;;;;;;;4978597;28;20496;-79
2022/03/17 12:59:30;;;;;;;1.20;0.40;;;;;;;;;;4958925;28;20033;-79
2022/03/17 13:01:55;;;;;;;3.45;0.70;;;;;;;;;;4975200;28;20086;-79
2022/03/17 13:04:21;;;;;;;1.40;0.50;;;;;;;;;;4991375;28;20133;-80
2022/03/17 13:06:57;;;;;;;3.17;0.80;;;;;;;;;;4975221;28;20424;-80
2022/03/17 13:09:31;;;;;;;2.30;0.60;;;;;;;;;;4976650;28;20489;-79
2022/03/17 13:14:50;;;;;;;3.33;0.60;;;;;;;;;;4977717;28;20030;-82
2022/03/17 13:17:27;;;;;;;2.00;0.75;;;;;;;;;;4958924;28;20088;-82
2022/03/17 13:19:52;;;;;;;1.52;0.50;;;;;;;;;;4960311;28;20026;-82
2022/03/17 13:22:25;;;;;;;1.02;0.57;;;;;;;;;;4975130;28;20077;-82
2022/03/17 13:25:06;;;;;;;1.92;0.50;;;;;;;;;;4958648;28;20041;-81
2022/03/17 13:27:36;;;;;;;1.40;0.57;;;;;;;;;;4991454;28;20046;-81
2022/03/17 13:30:09;;;;;;;2.67;0.68;;;;;;;;;;4959172;28;20037;-82
2022/03/17 13:32:34;;;;;;;2.45;0.70;;;;;;;;;;4975423;28;20042;-81
2022/03/17 13:35:00;;;;;;;2.55;0.85;;;;;;;;;;4962265;28;20033;-79
2022/03/17 13:37:36;;;;;;;3.35;0.70;;;;;;;;;;4958813;28;20038;-79
2022/03/17 13:40:07;;;;;;;1.50;0.82;;;;;;;;;;4959334;28;20035;-79
2022/03/17 13:42:33;;;;;;;1.40;0.60;;;;;;;;;;4985114;28;20499;-79
2022/03/17 13:44:58;;;;;;;1.38;0.60;;;;;;;;;;4961948;28;20069;-79
2022/03/17 13:47:26;;;;;;;2.38;0.80;;;;;;;;;;4996635;28;20046;-80
2022/03/17 13:50:23;;;;;;;1.52;0.70;;;;;;;;;;4981977;28;20042;-79
2022/03/17 13:53:03;;;;;;;1.45;0.70;;;;;;;;;;4982091;28;20073;-81
2022/03/17 13:55:31;;;;;;;2.42;0.70;;;;;;;;;;4981491;28;20518;-81
2022/03/17 13:58:18;;;;;;;1.48;1.08;;;;;;;;;;4997936;28;20563;-82
2022/03/17 14:00:46;;;;;;;2.38;0.90;;;;;;;;;;4980287;28;20042;-82
2022/03/17 14:03:14;;;;;;;1.63;0.50;;;;;;;;;;4962946;28;20030;-82
2022/03/17 14:06:09;;;;;;;1.50;0.50;;;;;;;;;;4978852;28;20042;-81
2022/03/17 14:08:39;;;;;;;1.77;0.73;;;;;;;;;;4994779;28;20103;-82
2022/03/17 14:11:10;;;;;;;1.38;0.60;;;;;;;;;;4978948;28;20039;-79
2022/03/17 14:13:36;;;;;;;1.80;0.70;;;;;;;;;;4963186;28;20030;-79
2022/03/17 14:16:02;;;;;;;2.28;0.88;;;;;;;;;;4962402;28;20400;-79
2022/03/17 14:18:28;;;;;;;1.65;0.63;;;;;;;;;;4978432;28;20034;-80
2022/03/17 14:20:58;;;;;;;2.08;0.68;;;;;;;;;;4978599;28;20121;-79
2022/03/17 14:26:11;;;;;;;1.42;0.50;;;;;;;;;;4994729;28;20066;-81
2022/03/17 14:28:37;;;;;;;2.40;0.82;;;;;;;;;;4978449;28;20042;-82
2022/03/17 14:31:02;;;;;;;1.40;0.73;;;;;;;;;;4961951;28;20089;-81
2022/03/17 14:33:28;;;;;;;2.15;0.70;;;;;;;;;;4994232;28;20521;-79
2022/03/17 14:35:53;;;;;;;2.78;0.65;;;;;;;;;;4981336;28;20455;-79
2022/03/17 14:38:19;;;;;;;1.77;0.98;;;;;;;;;;4965124;28;20562;-79
2022/03/17 14:40:46;;;;;;;2.20;0.60;;;;;;;;;;4981026;28;20455;-79
2022/03/17 14:43:12;;;;;;;1.63;0.70;;;;;;;;;;4978365;28;20046;-79
2022/03/17 14:45:38;;;;;;;1.88;0.70;;;;;;;;;;4961836;28;20034;-79
2022/03/17 14:48:04;;;;;;;3.00;1.23;;;;;;;;;;4961988;28;20042;-80
2022/03/17 14:50:29;;;;;;;1.67;0.55;;;;;;;;;;4961749;28;20500;-82
2022/03/17 14:52:55;;;;;;;2.63;0.80;;;;;;;;;;4995907;28;20408;-82
2022/03/17 14:55:20;;;;;;;2.53;0.77;;;;;;;;;;4980250;28;20061;-81
2022/03/17 14:57:46;;;;;;;2.85;1.23;;;;;;;;;;4996370;28;20038;-82
2022/03/17 15:00:12;;;;;;;1.92;0.70;;;;;;;;;;4980861;28;20038;-81
2022/03/17 15:02:37;;;;;;;1.58;0.60;;;;;;;;;;4964668;28;20045;-82
2022/03/17 15:05:03;;;;;;;2.67;1.05;;;;;;;;;;4980667;28;20085;-81
2022/03/17 15:07:31;;;;;;;1.33;0.50;;;;;;;;;;4981045;28;20041;-81